sensor_id;sensor_type;location;lat;lon;timestamp;P1;durP1;ratioP1;P2;durP2;ratioP2
76379;SDS011;65201;21.060;105.826;2023-02-18T00:01:11;35.72;;;23.77;;
76379;SDS011;65201;21.060;105.826;2023-02-18T00:03:38;33.03;;;23.02;;
76379;SDS011;65201;21.060;105.826;2023-02-18T00:06:09;33.65;;;22.85;;
76379;SDS011;65201;21.060;105.826;2023-02-18T00:08:36;38.43;;;23.07;;
76379;SDS011;65201;21.060;105.826;2023-02-18T00:11:04;33.38;;;23.08;;
76379;SDS011;65201;21.060;105.826;2023-02-18T00:13:30;35.97;;;23.23;;
76379;SDS011;65201;21.060;105.826;2023-02-18T00:16:00;35.50;;;23.10;;
76379;SDS011;65201;21.060;105.826;2023-02-18T00:18:27;32.33;;;22.40;;
76379;SDS011;65201;21.060;105.826;2023-02-18T00:20:53;39.53;;;23.60;;
76379;SDS011;65201;21.060;105.826;2023-02-18T00:23:19;37.25;;;23.55;;
76379;SDS011;65201;21.060;105.826;2023-02-18T00:25:45;35.67;;;23.60;;
76379;SDS011;65201;21.060;105.826;2023-02-18T00:28:11;38.25;;;23.10;;
76379;SDS011;65201;21.060;105.826;2023-02-18T00:30:41;33.85;;;21.60;;
76379;SDS011;65201;21.060;105.826;2023-02-18T00:33:08;34.37;;;22.17;;
76379;SDS011;65201;21.060;105.826;2023-02-18T00:35:34;37.70;;;23.17;;
76379;SDS011;65201;21.060;105.826;2023-02-18T00:38:00;34.08;;;22.90;;
76379;SDS011;65201;21.060;105.826;2023-02-18T00:40:27;34.92;;;23.00;;
76379;SDS011;65201;21.060;105.826;2023-02-18T00:42:53;39.50;;;22.58;;
76379;SDS011;65201;21.060;105.826;2023-02-18T00:45:19;37.53;;;23.43;;
76379;SDS011;65201;21.060;105.826;2023-02-18T00:47:45;33.10;;;22.25;;
76379;SDS011;65201;21.060;105.826;2023-02-18T00:50:12;37.00;;;24.33;;
76379;SDS011;65201;21.060;105.826;2023-02-18T00:52:38;35.95;;;22.50;;
76379;SDS011;65201;21.060;105.826;2023-02-18T00:55:04;32.20;;;21.30;;
76379;SDS011;65201;21.060;105.826;2023-02-18T00:57:30;36.50;;;22.07;;
76379;SDS011;65201;21.060;105.826;2023-02-18T00:59:57;34.20;;;22.63;;
76379;SDS011;65201;21.060;105.826;2023-02-18T01:02:23;33.85;;;23.50;;
76379;SDS011;65201;21.060;105.826;2023-02-18T01:04:49;37.10;;;23.50;;
76379;SDS011;65201;21.060;105.826;2023-02-18T01:07:15;34.95;;;22.90;;
76379;SDS011;65201;21.060;105.826;2023-02-18T01:09:42;35.27;;;23.13;;
76379;SDS011;65201;21.060;105.826;2023-02-18T01:12:08;33.45;;;22.30;;
76379;SDS011;65201;21.060;105.826;2023-02-18T01:14:34;35.78;;;23.35;;
76379;SDS011;65201;21.060;105.826;2023-02-18T01:17:00;36.90;;;22.75;;
76379;SDS011;65201;21.060;105.826;2023-02-18T01:19:27;37.13;;;22.85;;
76379;SDS011;65201;21.060;105.826;2023-02-18T01:21:53;38.57;;;23.50;;
76379;SDS011;65201;21.060;105.826;2023-02-18T01:24:19;36.88;;;21.85;;
76379;SDS011;65201;21.060;105.826;2023-02-18T01:26:45;33.42;;;22.27;;
76379;SDS011;65201;21.060;105.826;2023-02-18T01:29:12;34.45;;;22.00;;
76379;SDS011;65201;21.060;105.826;2023-02-18T01:31:38;42.95;;;22.52;;
76379;SDS011;65201;21.060;105.826;2023-02-18T01:34:04;42.07;;;22.97;;
76379;SDS011;65201;21.060;105.826;2023-02-18T01:36:30;41.42;;;21.77;;
76379;SDS011;65201;21.060;105.826;2023-02-18T01:38:56;34.63;;;21.80;;
76379;SDS011;65201;21.060;105.826;2023-02-18T01:41:23;35.83;;;21.95;;
76379;SDS011;65201;21.060;105.826;2023-02-18T01:44:09;41.95;;;21.05;;
76379;SDS011;65201;21.060;105.826;2023-02-18T01:46:35;32.87;;;19.93;;
76379;SDS011;65201;21.060;105.826;2023-02-18T01:49:01;35.35;;;21.50;;
76379;SDS011;65201;21.060;105.826;2023-02-18T01:51:29;36.97;;;20.52;;
76379;SDS011;65201;21.060;105.826;2023-02-18T01:54:02;40.15;;;19.65;;
76379;SDS011;65201;21.060;105.826;2023-02-18T01:56:40;30.92;;;19.17;;
76379;SDS011;65201;21.060;105.826;2023-02-18T01:59:09;34.73;;;19.43;;
76379;SDS011;65201;21.060;105.826;2023-02-18T02:01:36;34.28;;;19.33;;
76379;SDS011;65201;21.060;105.826;2023-02-18T02:04:03;30.08;;;19.55;;
76379;SDS011;65201;21.060;105.826;2023-02-18T02:06:30;28.83;;;18.40;;
76379;SDS011;65201;21.060;105.826;2023-02-18T02:08:58;31.30;;;18.45;;
76379;SDS011;65201;21.060;105.826;2023-02-18T02:14:09;42.90;;;19.98;;
76379;SDS011;65201;21.060;105.826;2023-02-18T02:19:29;31.40;;;19.35;;
76379;SDS011;65201;21.060;105.826;2023-02-18T02:27:10;31.75;;;18.67;;
76379;SDS011;65201;21.060;105.826;2023-02-18T02:35:08;36.10;;;18.52;;
76379;SDS011;65201;21.060;105.826;2023-02-18T02:37:58;31.27;;;18.23;;
76379;SDS011;65201;21.060;105.826;2023-02-18T02:40:32;31.05;;;17.48;;
76379;SDS011;65201;21.060;105.826;2023-02-18T02:43:11;33.63;;;17.38;;
76379;SDS011;65201;21.060;105.826;2023-02-18T02:45:43;31.52;;;18.08;;
76379;SDS011;65201;21.060;105.826;2023-02-18T02:53:10;28.60;;;16.77;;
76379;SDS011;65201;21.060;105.826;2023-02-18T02:55:38;30.38;;;16.73;;
76379;SDS011;65201;21.060;105.826;2023-02-18T02:58:04;28.05;;;16.58;;
76379;SDS011;65201;21.060;105.826;2023-02-18T03:00:34;28.58;;;16.17;;
76379;SDS011;65201;21.060;105.826;2023-02-18T03:05:38;29.38;;;16.60;;
76379;SDS011;65201;21.060;105.826;2023-02-18T03:16:12;26.03;;;16.37;;
76379;SDS011;65201;21.060;105.826;2023-02-18T03:18:40;31.15;;;16.60;;
76379;SDS011;65201;21.060;105.826;2023-02-18T03:21:11;34.08;;;15.65;;
76379;SDS011;65201;21.060;105.826;2023-02-18T03:23:40;26.20;;;15.88;;
76379;SDS011;65201;21.060;105.826;2023-02-18T03:26:08;25.33;;;15.63;;
76379;SDS011;65201;21.060;105.826;2023-02-18T03:28:38;27.88;;;15.23;;
76379;SDS011;65201;21.060;105.826;2023-02-18T03:31:07;24.63;;;14.97;;
76379;SDS011;65201;21.060;105.826;2023-02-18T03:33:36;30.05;;;15.32;;
76379;SDS011;65201;21.060;105.826;2023-02-18T03:36:05;24.65;;;15.20;;
76379;SDS011;65201;21.060;105.826;2023-02-18T03:38:36;26.02;;;14.93;;
76379;SDS011;65201;21.060;105.826;2023-02-18T03:41:04;32.33;;;15.73;;
76379;SDS011;65201;21.060;105.826;2023-02-18T03:43:31;26.07;;;15.60;;
76379;SDS011;65201;21.060;105.826;2023-02-18T03:45:57;28.92;;;15.02;;
76379;SDS011;65201;21.060;105.826;2023-02-18T03:48:23;28.23;;;14.90;;
76379;SDS011;65201;21.060;105.826;2023-02-18T03:50:50;27.67;;;14.73;;
76379;SDS011;65201;21.060;105.826;2023-02-18T03:53:16;26.42;;;14.25;;
76379;SDS011;65201;21.060;105.826;2023-02-18T03:55:42;31.50;;;14.70;;
76379;SDS011;65201;21.060;105.826;2023-02-18T03:58:08;28.52;;;14.82;;
76379;SDS011;65201;21.060;105.826;2023-02-18T04:00:34;25.63;;;14.02;;
76379;SDS011;65201;21.060;105.826;2023-02-18T04:03:01;24.17;;;14.13;;
76379;SDS011;65201;21.060;105.826;2023-02-18T04:05:27;23.27;;;14.07;;
76379;SDS011;65201;21.060;105.826;2023-02-18T04:07:53;24.33;;;14.33;;
76379;SDS011;65201;21.060;105.826;2023-02-18T04:10:19;22.92;;;14.82;;
76379;SDS011;65201;21.060;105.826;2023-02-18T04:12:47;27.60;;;14.20;;
76379;SDS011;65201;21.060;105.826;2023-02-18T04:15:16;30.67;;;16.08;;
76379;SDS011;65201;21.060;105.826;2023-02-18T04:17:42;24.77;;;14.95;;
76379;SDS011;65201;21.060;105.826;2023-02-18T04:20:08;33.23;;;16.30;;
76379;SDS011;65201;21.060;105.826;2023-02-18T04:22:34;23.98;;;14.93;;
76379;SDS011;65201;21.060;105.826;2023-02-18T04:25:00;25.90;;;15.48;;
76379;SDS011;65201;21.060;105.826;2023-02-18T04:27:26;25.75;;;15.50;;
76379;SDS011;65201;21.060;105.826;2023-02-18T04:29:52;29.42;;;15.80;;
76379;SDS011;65201;21.060;105.826;2023-02-18T04:32:18;24.87;;;15.03;;
76379;SDS011;65201;21.060;105.826;2023-02-18T04:34:44;27.92;;;15.77;;
76379;SDS011;65201;21.060;105.826;2023-02-18T04:37:11;25.10;;;15.57;;
76379;SDS011;65201;21.060;105.826;2023-02-18T04:39:37;24.38;;;14.73;;
76379;SDS011;65201;21.060;105.826;2023-02-18T04:42:03;26.45;;;15.75;;
76379;SDS011;65201;21.060;105.826;2023-02-18T04:44:33;28.83;;;15.47;;
76379;SDS011;65201;21.060;105.826;2023-02-18T04:47:00;23.77;;;14.70;;
76379;SDS011;65201;21.060;105.826;2023-02-18T04:49:26;26.08;;;14.55;;
76379;SDS011;65201;21.060;105.826;2023-02-18T04:51:56;28.80;;;14.50;;
76379;SDS011;65201;21.060;105.826;2023-02-18T04:54:22;23.38;;;14.82;;
76379;SDS011;65201;21.060;105.826;2023-02-18T04:56:54;27.60;;;15.30;;
76379;SDS011;65201;21.060;105.826;2023-02-18T04:59:20;25.75;;;15.43;;
76379;SDS011;65201;21.060;105.826;2023-02-18T05:01:46;26.60;;;16.08;;
76379;SDS011;65201;21.060;105.826;2023-02-18T05:04:12;34.42;;;16.17;;
76379;SDS011;65201;21.060;105.826;2023-02-18T05:06:38;33.38;;;16.05;;
76379;SDS011;65201;21.060;105.826;2023-02-18T05:09:04;29.83;;;17.00;;
76379;SDS011;65201;21.060;105.826;2023-02-18T05:11:31;32.03;;;17.45;;
76379;SDS011;65201;21.060;105.826;2023-02-18T05:13:57;27.27;;;16.88;;
76379;SDS011;65201;21.060;105.826;2023-02-18T05:16:23;28.80;;;17.00;;
76379;SDS011;65201;21.060;105.826;2023-02-18T05:18:49;36.78;;;16.45;;
76379;SDS011;65201;21.060;105.826;2023-02-18T05:21:15;29.07;;;17.10;;
76379;SDS011;65201;21.060;105.826;2023-02-18T05:23:41;37.03;;;18.00;;
76379;SDS011;65201;21.060;105.826;2023-02-18T05:26:07;35.38;;;17.95;;
76379;SDS011;65201;21.060;105.826;2023-02-18T05:28:33;32.42;;;16.60;;
76379;SDS011;65201;21.060;105.826;2023-02-18T05:31:02;26.90;;;16.05;;
76379;SDS011;65201;21.060;105.826;2023-02-18T05:33:28;28.67;;;16.17;;
76379;SDS011;65201;21.060;105.826;2023-02-18T05:35:54;28.05;;;15.73;;
76379;SDS011;65201;21.060;105.826;2023-02-18T05:38:20;32.13;;;16.65;;
76379;SDS011;65201;21.060;105.826;2023-02-18T05:40:46;25.65;;;16.17;;
76379;SDS011;65201;21.060;105.826;2023-02-18T05:43:13;26.20;;;16.90;;
76379;SDS011;65201;21.060;105.826;2023-02-18T05:45:39;25.63;;;16.07;;
76379;SDS011;65201;21.060;105.826;2023-02-18T05:48:05;26.08;;;16.52;;
76379;SDS011;65201;21.060;105.826;2023-02-18T05:50:32;31.38;;;17.60;;
76379;SDS011;65201;21.060;105.826;2023-02-18T05:52:58;28.80;;;16.77;;
76379;SDS011;65201;21.060;105.826;2023-02-18T05:55:24;29.23;;;16.73;;
76379;SDS011;65201;21.060;105.826;2023-02-18T05:57:50;27.03;;;16.33;;
76379;SDS011;65201;21.060;105.826;2023-02-18T06:00:16;25.05;;;16.10;;
76379;SDS011;65201;21.060;105.826;2023-02-18T06:02:43;27.77;;;17.15;;
76379;SDS011;65201;21.060;105.826;2023-02-18T06:05:09;26.80;;;16.17;;
76379;SDS011;65201;21.060;105.826;2023-02-18T06:07:35;26.55;;;17.77;;
76379;SDS011;65201;21.060;105.826;2023-02-18T06:10:02;26.00;;;16.57;;
76379;SDS011;65201;21.060;105.826;2023-02-18T06:12:28;30.25;;;17.27;;
76379;SDS011;65201;21.060;105.826;2023-02-18T06:14:54;26.95;;;16.98;;
76379;SDS011;65201;21.060;105.826;2023-02-18T06:17:20;27.05;;;18.13;;
76379;SDS011;65201;21.060;105.826;2023-02-18T06:19:47;26.98;;;17.70;;
76379;SDS011;65201;21.060;105.826;2023-02-18T06:22:13;28.37;;;17.07;;
76379;SDS011;65201;21.060;105.826;2023-02-18T06:24:39;33.08;;;18.55;;
76379;SDS011;65201;21.060;105.826;2023-02-18T06:27:05;27.30;;;18.27;;
76379;SDS011;65201;21.060;105.826;2023-02-18T06:29:31;30.80;;;18.80;;
76379;SDS011;65201;21.060;105.826;2023-02-18T06:32:00;30.77;;;17.98;;
76379;SDS011;65201;21.060;105.826;2023-02-18T06:34:26;29.73;;;17.90;;
76379;SDS011;65201;21.060;105.826;2023-02-18T06:36:52;27.52;;;17.23;;
76379;SDS011;65201;21.060;105.826;2023-02-18T06:39:18;31.10;;;17.70;;
76379;SDS011;65201;21.060;105.826;2023-02-18T06:41:44;32.35;;;17.85;;
76379;SDS011;65201;21.060;105.826;2023-02-18T06:44:10;31.38;;;18.45;;
76379;SDS011;65201;21.060;105.826;2023-02-18T06:46:39;30.93;;;18.10;;
76379;SDS011;65201;21.060;105.826;2023-02-18T06:49:05;29.70;;;18.60;;
76379;SDS011;65201;21.060;105.826;2023-02-18T06:51:31;27.77;;;18.20;;
76379;SDS011;65201;21.060;105.826;2023-02-18T06:53:57;33.72;;;18.70;;
76379;SDS011;65201;21.060;105.826;2023-02-18T06:56:24;29.58;;;18.67;;
76379;SDS011;65201;21.060;105.826;2023-02-18T06:58:50;33.63;;;18.37;;
76379;SDS011;65201;21.060;105.826;2023-02-18T07:01:16;26.63;;;17.38;;
76379;SDS011;65201;21.060;105.826;2023-02-18T07:03:42;30.27;;;17.55;;
76379;SDS011;65201;21.060;105.826;2023-02-18T07:06:08;29.58;;;17.67;;
76379;SDS011;65201;21.060;105.826;2023-02-18T07:08:34;27.30;;;17.38;;
76379;SDS011;65201;21.060;105.826;2023-02-18T07:11:02;30.30;;;18.47;;
76379;SDS011;65201;21.060;105.826;2023-02-18T07:13:28;29.35;;;17.35;;
76379;SDS011;65201;21.060;105.826;2023-02-18T07:15:54;25.65;;;17.15;;
76379;SDS011;65201;21.060;105.826;2023-02-18T07:18:20;25.50;;;17.02;;
76379;SDS011;65201;21.060;105.826;2023-02-18T07:20:46;29.35;;;18.02;;
76379;SDS011;65201;21.060;105.826;2023-02-18T07:23:12;28.20;;;18.20;;
76379;SDS011;65201;21.060;105.826;2023-02-18T07:25:38;28.13;;;17.17;;
76379;SDS011;65201;21.060;105.826;2023-02-18T07:28:05;30.95;;;18.52;;
76379;SDS011;65201;21.060;105.826;2023-02-18T07:30:31;30.45;;;18.17;;
76379;SDS011;65201;21.060;105.826;2023-02-18T07:32:57;28.60;;;17.90;;
76379;SDS011;65201;21.060;105.826;2023-02-18T07:35:23;30.43;;;17.97;;
76379;SDS011;65201;21.060;105.826;2023-02-18T07:37:49;29.55;;;17.85;;
76379;SDS011;65201;21.060;105.826;2023-02-18T07:40:17;27.48;;;17.80;;
76379;SDS011;65201;21.060;105.826;2023-02-18T07:42:43;32.58;;;18.38;;
76379;SDS011;65201;21.060;105.826;2023-02-18T07:45:09;33.17;;;18.70;;
76379;SDS011;65201;21.060;105.826;2023-02-18T07:47:36;52.40;;;21.97;;
76379;SDS011;65201;21.060;105.826;2023-02-18T07:50:03;31.85;;;17.45;;
76379;SDS011;65201;21.060;105.826;2023-02-18T07:52:29;29.40;;;17.42;;
76379;SDS011;65201;21.060;105.826;2023-02-18T07:54:55;40.22;;;18.40;;
76379;SDS011;65201;21.060;105.826;2023-02-18T07:57:21;31.92;;;17.90;;
76379;SDS011;65201;21.060;105.826;2023-02-18T07:59:47;29.87;;;17.60;;
76379;SDS011;65201;21.060;105.826;2023-02-18T08:02:14;30.67;;;17.45;;
76379;SDS011;65201;21.060;105.826;2023-02-18T08:04:42;33.17;;;17.88;;
76379;SDS011;65201;21.060;105.826;2023-02-18T08:07:11;32.22;;;17.67;;
76379;SDS011;65201;21.060;105.826;2023-02-18T08:09:37;29.33;;;17.98;;
76379;SDS011;65201;21.060;105.826;2023-02-18T08:12:03;32.87;;;18.00;;
76379;SDS011;65201;21.060;105.826;2023-02-18T08:14:29;35.33;;;17.70;;
76379;SDS011;65201;21.060;105.826;2023-02-18T08:16:55;41.47;;;16.90;;
76379;SDS011;65201;21.060;105.826;2023-02-18T08:19:21;31.48;;;17.25;;
76379;SDS011;65201;21.060;105.826;2023-02-18T08:21:48;30.10;;;17.75;;
76379;SDS011;65201;21.060;105.826;2023-02-18T08:24:14;34.70;;;18.00;;
76379;SDS011;65201;21.060;105.826;2023-02-18T08:26:40;27.88;;;15.70;;
76379;SDS011;65201;21.060;105.826;2023-02-18T08:29:06;26.92;;;16.25;;
76379;SDS011;65201;21.060;105.826;2023-02-18T08:31:32;28.92;;;16.98;;
76379;SDS011;65201;21.060;105.826;2023-02-18T08:33:59;29.58;;;17.30;;
76379;SDS011;65201;21.060;105.826;2023-02-18T08:36:25;35.63;;;18.33;;
76379;SDS011;65201;21.060;105.826;2023-02-18T08:38:52;35.42;;;18.35;;
76379;SDS011;65201;21.060;105.826;2023-02-18T08:41:18;32.92;;;18.63;;
76379;SDS011;65201;21.060;105.826;2023-02-18T08:43:44;30.17;;;17.85;;
76379;SDS011;65201;21.060;105.826;2023-02-18T08:46:11;32.47;;;19.00;;
76379;SDS011;65201;21.060;105.826;2023-02-18T08:48:37;28.83;;;17.73;;
76379;SDS011;65201;21.060;105.826;2023-02-18T08:51:13;31.80;;;19.35;;
76379;SDS011;65201;21.060;105.826;2023-02-18T08:53:39;38.30;;;18.75;;
76379;SDS011;65201;21.060;105.826;2023-02-18T08:56:06;35.55;;;18.65;;
76379;SDS011;65201;21.060;105.826;2023-02-18T08:58:32;34.08;;;18.80;;
76379;SDS011;65201;21.060;105.826;2023-02-18T09:01:02;32.00;;;17.80;;
76379;SDS011;65201;21.060;105.826;2023-02-18T09:03:29;32.42;;;18.20;;
76379;SDS011;65201;21.060;105.826;2023-02-18T09:05:55;36.85;;;17.77;;
76379;SDS011;65201;21.060;105.826;2023-02-18T09:08:21;29.30;;;17.83;;
76379;SDS011;65201;21.060;105.826;2023-02-18T09:10:47;26.75;;;17.73;;
76379;SDS011;65201;21.060;105.826;2023-02-18T09:13:13;29.67;;;18.07;;
76379;SDS011;65201;21.060;105.826;2023-02-18T09:15:40;29.65;;;17.15;;
76379;SDS011;65201;21.060;105.826;2023-02-18T09:18:06;30.13;;;17.75;;
76379;SDS011;65201;21.060;105.826;2023-02-18T09:20:32;29.35;;;16.95;;
76379;SDS011;65201;21.060;105.826;2023-02-18T09:22:58;29.90;;;16.98;;
76379;SDS011;65201;21.060;105.826;2023-02-18T09:25:25;33.47;;;17.33;;
76379;SDS011;65201;21.060;105.826;2023-02-18T09:27:52;29.42;;;17.13;;
76379;SDS011;65201;21.060;105.826;2023-02-18T09:30:18;33.45;;;16.48;;
76379;SDS011;65201;21.060;105.826;2023-02-18T09:32:44;25.00;;;16.40;;
76379;SDS011;65201;21.060;105.826;2023-02-18T09:35:10;26.40;;;17.65;;
76379;SDS011;65201;21.060;105.826;2023-02-18T09:37:36;26.73;;;16.83;;
76379;SDS011;65201;21.060;105.826;2023-02-18T09:40:04;28.35;;;16.83;;
76379;SDS011;65201;21.060;105.826;2023-02-18T09:42:31;28.80;;;17.50;;
76379;SDS011;65201;21.060;105.826;2023-02-18T09:44:59;24.98;;;16.77;;
76379;SDS011;65201;21.060;105.826;2023-02-18T09:47:44;24.95;;;16.80;;
76379;SDS011;65201;21.060;105.826;2023-02-18T09:50:44;26.23;;;16.60;;
76379;SDS011;65201;21.060;105.826;2023-02-18T09:53:03;25.63;;;17.10;;
76379;SDS011;65201;21.060;105.826;2023-02-18T09:58:04;23.90;;;16.08;;
76379;SDS011;65201;21.060;105.826;2023-02-18T10:03:00;24.50;;;16.27;;
76379;SDS011;65201;21.060;105.826;2023-02-18T10:05:28;24.98;;;15.75;;
76379;SDS011;65201;21.060;105.826;2023-02-18T10:07:56;26.13;;;16.25;;
76379;SDS011;65201;21.060;105.826;2023-02-18T10:10:30;26.75;;;15.70;;
76379;SDS011;65201;21.060;105.826;2023-02-18T10:12:58;22.30;;;15.18;;
76379;SDS011;65201;21.060;105.826;2023-02-18T10:15:30;24.87;;;15.17;;
76379;SDS011;65201;21.060;105.826;2023-02-18T10:17:57;21.80;;;15.13;;
76379;SDS011;65201;21.060;105.826;2023-02-18T10:20:25;22.35;;;14.98;;
76379;SDS011;65201;21.060;105.826;2023-02-18T10:22:53;25.58;;;16.58;;
76379;SDS011;65201;21.060;105.826;2023-02-18T10:25:21;21.42;;;14.45;;
76379;SDS011;65201;21.060;105.826;2023-02-18T10:27:48;21.67;;;14.53;;
76379;SDS011;65201;21.060;105.826;2023-02-18T10:33:04;24.23;;;15.55;;
76379;SDS011;65201;21.060;105.826;2023-02-18T10:35:39;20.95;;;15.05;;
76379;SDS011;65201;21.060;105.826;2023-02-18T10:43:21;23.48;;;15.45;;
76379;SDS011;65201;21.060;105.826;2023-02-18T10:45:59;23.08;;;15.75;;
76379;SDS011;65201;21.060;105.826;2023-02-18T10:50:57;24.73;;;14.95;;
76379;SDS011;65201;21.060;105.826;2023-02-18T10:53:32;20.47;;;14.37;;
76379;SDS011;65201;21.060;105.826;2023-02-18T10:55:59;24.08;;;15.95;;
76379;SDS011;65201;21.060;105.826;2023-02-18T10:58:32;22.90;;;15.18;;
76379;SDS011;65201;21.060;105.826;2023-02-18T11:01:00;26.52;;;15.18;;
76379;SDS011;65201;21.060;105.826;2023-02-18T11:03:38;21.98;;;15.05;;
76379;SDS011;65201;21.060;105.826;2023-02-18T11:06:06;22.27;;;14.67;;
76379;SDS011;65201;21.060;105.826;2023-02-18T11:08:41;26.23;;;17.52;;
76379;SDS011;65201;21.060;105.826;2023-02-18T11:11:11;22.35;;;15.57;;
76379;SDS011;65201;21.060;105.826;2023-02-18T11:13:39;23.15;;;15.45;;
76379;SDS011;65201;21.060;105.826;2023-02-18T11:16:09;23.88;;;15.48;;
76379;SDS011;65201;21.060;105.826;2023-02-18T11:18:42;25.40;;;15.00;;
76379;SDS011;65201;21.060;105.826;2023-02-18T11:23:52;27.10;;;17.58;;
76379;SDS011;65201;21.060;105.826;2023-02-18T11:26:31;25.13;;;16.23;;
76379;SDS011;65201;21.060;105.826;2023-02-18T11:29:39;24.45;;;15.85;;
76379;SDS011;65201;21.060;105.826;2023-02-18T11:31:47;24.30;;;15.97;;
76379;SDS011;65201;21.060;105.826;2023-02-18T11:34:25;25.80;;;16.65;;
76379;SDS011;65201;21.060;105.826;2023-02-18T11:36:52;24.27;;;15.80;;
76379;SDS011;65201;21.060;105.826;2023-02-18T11:39:20;25.23;;;15.85;;
76379;SDS011;65201;21.060;105.826;2023-02-18T11:42:11;26.20;;;15.52;;
76379;SDS011;65201;21.060;105.826;2023-02-18T11:44:51;21.60;;;15.70;;
76379;SDS011;65201;21.060;105.826;2023-02-18T11:47:22;22.35;;;15.85;;
76379;SDS011;65201;21.060;105.826;2023-02-18T11:50:02;27.40;;;16.95;;
76379;SDS011;65201;21.060;105.826;2023-02-18T11:52:33;26.63;;;16.95;;
76379;SDS011;65201;21.060;105.826;2023-02-18T11:55:04;24.80;;;15.82;;
76379;SDS011;65201;21.060;105.826;2023-02-18T11:57:34;25.00;;;16.10;;
76379;SDS011;65201;21.060;105.826;2023-02-18T12:00:02;24.95;;;16.17;;
76379;SDS011;65201;21.060;105.826;2023-02-18T12:02:31;24.08;;;16.20;;
76379;SDS011;65201;21.060;105.826;2023-02-18T12:05:10;27.42;;;16.63;;
76379;SDS011;65201;21.060;105.826;2023-02-18T12:10:18;22.17;;;15.53;;
76379;SDS011;65201;21.060;105.826;2023-02-18T12:12:58;24.05;;;15.65;;
76379;SDS011;65201;21.060;105.826;2023-02-18T12:19:04;25.83;;;16.02;;
76379;SDS011;65201;21.060;105.826;2023-02-18T12:21:18;25.98;;;16.15;;
76379;SDS011;65201;21.060;105.826;2023-02-18T12:26:28;22.45;;;15.45;;
76379;SDS011;65201;21.060;105.826;2023-02-18T12:32:11;23.63;;;16.05;;
76379;SDS011;65201;21.060;105.826;2023-02-18T12:34:43;24.15;;;16.65;;
76379;SDS011;65201;21.060;105.826;2023-02-18T12:37:25;23.97;;;15.70;;
76379;SDS011;65201;21.060;105.826;2023-02-18T12:43:00;25.00;;;16.25;;
76379;SDS011;65201;21.060;105.826;2023-02-18T12:45:36;24.80;;;17.73;;
76379;SDS011;65201;21.060;105.826;2023-02-18T12:50:53;30.00;;;19.23;;
76379;SDS011;65201;21.060;105.826;2023-02-18T12:53:43;30.17;;;18.67;;
76379;SDS011;65201;21.060;105.826;2023-02-18T12:58:50;28.13;;;18.95;;
76379;SDS011;65201;21.060;105.826;2023-02-18T13:14:52;27.88;;;19.30;;
76379;SDS011;65201;21.060;105.826;2023-02-18T13:17:22;28.10;;;19.03;;
76379;SDS011;65201;21.060;105.826;2023-02-18T13:22:17;27.05;;;18.38;;
76379;SDS011;65201;21.060;105.826;2023-02-18T13:24:44;29.67;;;18.98;;
76379;SDS011;65201;21.060;105.826;2023-02-18T13:39:53;32.90;;;19.23;;
76379;SDS011;65201;21.060;105.826;2023-02-18T13:42:24;28.03;;;19.00;;
76379;SDS011;65201;21.060;105.826;2023-02-18T13:58:03;29.42;;;19.05;;
76379;SDS011;65201;21.060;105.826;2023-02-18T14:00:34;31.17;;;19.65;;
76379;SDS011;65201;21.060;105.826;2023-02-18T14:03:02;38.97;;;20.52;;
76379;SDS011;65201;21.060;105.826;2023-02-18T14:05:43;30.75;;;19.90;;
76379;SDS011;65201;21.060;105.826;2023-02-18T14:08:30;34.67;;;20.73;;
76379;SDS011;65201;21.060;105.826;2023-02-18T14:13:42;28.55;;;19.60;;
76379;SDS011;65201;21.060;105.826;2023-02-18T14:16:09;29.02;;;19.52;;
76379;SDS011;65201;21.060;105.826;2023-02-18T14:26:32;28.60;;;18.75;;
76379;SDS011;65201;21.060;105.826;2023-02-18T14:29:10;25.25;;;17.90;;
76379;SDS011;65201;21.060;105.826;2023-02-18T14:37:14;28.95;;;19.33;;
76379;SDS011;65201;21.060;105.826;2023-02-18T14:47:53;26.93;;;18.33;;
76379;SDS011;65201;21.060;105.826;2023-02-18T14:50:21;31.40;;;17.42;;
76379;SDS011;65201;21.060;105.826;2023-02-18T14:52:48;28.15;;;17.38;;
76379;SDS011;65201;21.060;105.826;2023-02-18T14:55:37;27.42;;;16.95;;
76379;SDS011;65201;21.060;105.826;2023-02-18T14:58:23;25.02;;;16.85;;
76379;SDS011;65201;21.060;105.826;2023-02-18T15:00:52;28.53;;;16.97;;
76379;SDS011;65201;21.060;105.826;2023-02-18T15:03:25;26.55;;;17.75;;
76379;SDS011;65201;21.060;105.826;2023-02-18T15:05:56;24.55;;;16.63;;
76379;SDS011;65201;21.060;105.826;2023-02-18T15:08:23;24.70;;;16.05;;
76379;SDS011;65201;21.060;105.826;2023-02-18T15:15:52;22.15;;;16.35;;
76379;SDS011;65201;21.060;105.826;2023-02-18T15:18:25;24.10;;;16.40;;
76379;SDS011;65201;21.060;105.826;2023-02-18T15:20:52;23.40;;;16.20;;
76379;SDS011;65201;21.060;105.826;2023-02-18T15:23:18;23.20;;;15.27;;
76379;SDS011;65201;21.060;105.826;2023-02-18T15:25:46;22.90;;;15.77;;
76379;SDS011;65201;21.060;105.826;2023-02-18T15:28:24;23.15;;;16.05;;
76379;SDS011;65201;21.060;105.826;2023-02-18T15:30:51;22.73;;;15.82;;
76379;SDS011;65201;21.060;105.826;2023-02-18T15:33:18;23.98;;;15.52;;
76379;SDS011;65201;21.060;105.826;2023-02-18T15:35:44;22.85;;;15.10;;
76379;SDS011;65201;21.060;105.826;2023-02-18T15:38:17;21.77;;;15.67;;
76379;SDS011;65201;21.060;105.826;2023-02-18T15:40:48;21.92;;;15.68;;
76379;SDS011;65201;21.060;105.826;2023-02-18T15:43:16;23.63;;;15.18;;
76379;SDS011;65201;21.060;105.826;2023-02-18T15:45:43;25.98;;;16.27;;
76379;SDS011;65201;21.060;105.826;2023-02-18T15:50:56;27.17;;;16.80;;
76379;SDS011;65201;21.060;105.826;2023-02-18T15:53:22;23.95;;;15.52;;
76379;SDS011;65201;21.060;105.826;2023-02-18T15:55:50;27.10;;;16.75;;
76379;SDS011;65201;21.060;105.826;2023-02-18T16:00:53;26.45;;;16.83;;
76379;SDS011;65201;21.060;105.826;2023-02-18T16:03:24;27.60;;;16.63;;
76379;SDS011;65201;21.060;105.826;2023-02-18T16:05:50;25.65;;;16.42;;
76379;SDS011;65201;21.060;105.826;2023-02-18T16:08:24;23.25;;;16.80;;
76379;SDS011;65201;21.060;105.826;2023-02-18T16:10:55;24.45;;;16.50;;
76379;SDS011;65201;21.060;105.826;2023-02-18T16:13:22;23.70;;;16.08;;
76379;SDS011;65201;21.060;105.826;2023-02-18T16:15:50;23.50;;;15.93;;
76379;SDS011;65201;21.060;105.826;2023-02-18T16:18:19;23.65;;;16.75;;
76379;SDS011;65201;21.060;105.826;2023-02-18T16:20:55;25.08;;;15.93;;
76379;SDS011;65201;21.060;105.826;2023-02-18T16:23:24;28.13;;;16.83;;
76379;SDS011;65201;21.060;105.826;2023-02-18T16:25:51;23.33;;;15.57;;
76379;SDS011;65201;21.060;105.826;2023-02-18T16:28:24;29.83;;;16.10;;
76379;SDS011;65201;21.060;105.826;2023-02-18T16:30:52;24.10;;;16.23;;